Time;durP1;ratioP1;P1;durP2;ratioP2;P2;SDS_P1;SDS_P2;PMS_P1;PMS_P2;Temp;Humidity;BMP_temperature;BMP_pressure;BME280_temperature;BME280_humidity;BME280_pressure;Samples;Min_cycle;Max_cycle;Signal;HPM_P1;HPM_P2
2021/07/31 00:00:18;;;;;;;8.73;3.33;;;15.30;94.20;;;;;;5112687;28;20125;-64
2021/07/31 00:02:46;;;;;;;7.73;3.10;;;15.30;94.10;;;;;;5113473;28;20048;-64
2021/07/31 00:05:13;;;;;;;6.43;3.00;;;15.30;94.10;;;;;;5113189;28;20055;-65
2021/07/31 00:07:43;;;;;;;8.17;3.07;;;15.30;94.00;;;;;;5112786;28;20048;-65
2021/07/31 00:10:12;;;;;;;7.83;3.07;;;15.30;93.90;;;;;;5113078;28;20522;-65
2021/07/31 00:12:39;;;;;;;6.90;2.73;;;15.30;93.90;;;;;;5113377;28;20067;-65
2021/07/31 00:15:05;;;;;;;6.83;2.70;;;15.30;93.80;;;;;;5112166;28;20476;-64
2021/07/31 00:17:31;;;;;;;4.80;2.60;;;15.30;93.80;;;;;;5113727;28;20073;-65
2021/07/31 00:19:57;;;;;;;7.47;3.13;;;15.30;93.70;;;;;;5113230;28;20055;-65
2021/07/31 00:22:23;;;;;;;7.07;2.37;;;15.30;93.70;;;;;;5111856;28;20415;-64
2021/07/31 00:24:48;;;;;;;6.43;2.97;;;15.30;93.70;;;;;;5112878;28;20492;-64
2021/07/31 00:27:14;;;;;;;6.00;2.70;;;15.30;93.70;;;;;;5112818;28;20490;-65
2021/07/31 00:29:39;;;;;;;8.53;3.43;;;15.30;93.80;;;;;;5112364;28;20043;-65
2021/07/31 00:32:06;;;;;;;7.57;2.93;;;15.30;93.80;;;;;;5112728;28;20392;-64
2021/07/31 00:34:32;;;;;;;6.13;2.47;;;15.30;93.80;;;;;;5112913;28;20492;-65
2021/07/31 00:36:58;;;;;;;5.43;3.00;;;15.30;93.80;;;;;;5112115;28;20103;-64
2021/07/31 00:39:24;;;;;;;9.50;3.63;;;15.30;93.80;;;;;;5113184;28;20051;-64
2021/07/31 00:41:49;;;;;;;9.17;3.10;;;15.30;93.90;;;;;;5112893;28;20051;-66
2021/07/31 00:44:15;;;;;;;8.53;3.77;;;15.30;93.90;;;;;;5111818;28;20047;-65
2021/07/31 00:46:41;;;;;;;6.70;3.10;;;15.20;93.90;;;;;;5112791;28;20052;-66
2021/07/31 00:49:07;;;;;;;7.27;3.20;;;15.20;94.00;;;;;;5112613;28;20404;-66
2021/07/31 00:51:32;;;;;;;9.70;3.00;;;15.20;94.00;;;;;;5112056;28;20058;-66
2021/07/31 00:53:58;;;;;;;9.20;3.20;;;15.20;94.00;;;;;;5112997;28;20067;-65
2021/07/31 00:56:24;;;;;;;6.80;3.20;;;15.20;94.00;;;;;;5112675;28;20511;-65
2021/07/31 00:58:50;;;;;;;7.97;3.13;;;15.20;94.10;;;;;;5112197;28;20507;-65
2021/07/31 01:01:15;;;;;;;12.57;3.50;;;15.20;94.10;;;;;;5112317;28;20532;-65
2021/07/31 01:03:41;;;;;;;10.97;3.30;;;15.20;94.10;;;;;;5116281;28;20097;-65
2021/07/31 01:06:07;;;;;;;9.27;3.43;;;15.20;94.00;;;;;;5117067;28;20043;-66
2021/07/31 01:08:33;;;;;;;8.57;3.43;;;15.20;94.00;;;;;;5116813;28;20518;-65
2021/07/31 01:11:00;;;;;;;9.93;3.80;;;15.10;94.10;;;;;;5116307;28;20048;-66
2021/07/31 01:13:27;;;;;;;11.03;4.20;;;15.10;94.10;;;;;;5117265;28;20043;-65
2021/07/31 01:16:02;;;;;;;6.77;3.50;;;15.10;94.10;;;;;;5116993;28;20040;-65
2021/07/31 01:18:28;;;;;;;8.37;4.00;;;15.10;94.10;;;;;;5116219;28;20047;-66
2021/07/31 01:20:57;;;;;;;9.47;3.60;;;15.20;94.10;;;;;;5116829;28;20099;-65
2021/07/31 01:23:22;;;;;;;7.73;4.07;;;15.20;94.10;;;;;;5116315;28;20055;-66
2021/07/31 01:25:48;;;;;;;13.47;4.10;;;15.20;94.10;;;;;;5116025;28;20488;-66
2021/07/31 01:28:14;;;;;;;8.47;5.33;;;15.20;94.20;;;;;;5116299;28;20051;-66
2021/07/31 01:30:40;;;;;;;8.77;4.13;;;15.20;94.10;;;;;;5116526;28;20051;-66
2021/07/31 01:33:06;;;;;;;12.40;4.87;;;15.20;94.10;;;;;;5115235;28;20050;-66
2021/07/31 01:35:32;;;;;;;12.13;4.40;;;15.20;94.10;;;;;;5116415;28;20120;-66
2021/07/31 01:37:58;;;;;;;12.60;5.03;;;15.20;94.10;;;;;;5116541;28;20062;-65
2021/07/31 01:40:23;;;;;;;8.30;4.30;;;15.20;94.00;;;;;;5115395;28;20048;-65
2021/07/31 01:42:49;;;;;;;10.10;4.53;;;15.20;94.00;;;;;;5116253;28;20399;-65
2021/07/31 01:45:15;;;;;;;11.10;4.90;;;15.20;93.90;;;;;;5115842;27;20044;-65
2021/07/31 01:47:41;;;;;;;10.57;4.70;;;15.30;93.90;;;;;;5115271;28;20048;-65
2021/07/31 01:50:07;;;;;;;10.03;4.63;;;15.20;93.90;;;;;;5115754;28;20051;-66
2021/07/31 01:52:33;;;;;;;11.50;5.43;;;15.20;93.90;;;;;;5115865;28;20085;-65
2021/07/31 01:55:01;;;;;;;8.43;5.00;;;15.20;93.80;;;;;;5115306;28;20047;-65
2021/07/31 01:57:27;;;;;;;12.00;5.07;;;15.20;93.90;;;;;;5115983;28;20040;-67
2021/07/31 01:59:53;;;;;;;14.53;5.57;;;15.20;93.90;;;;;;5115088;28;20071;-66
2021/07/31 02:02:18;;;;;;;11.63;5.43;;;15.20;93.90;;;;;;5115447;28;20051;-65
2021/07/31 02:04:46;;;;;;;11.87;5.70;;;15.20;93.90;;;;;;5115907;28;20491;-66
2021/07/31 02:07:12;;;;;;;10.30;5.17;;;15.20;94.00;;;;;;5114991;28;20136;-65
2021/07/31 02:09:41;;;;;;;12.67;6.00;;;15.20;94.00;;;;;;5115808;28;20050;-66
2021/07/31 02:12:06;;;;;;;12.63;6.53;;;15.20;94.00;;;;;;5115483;28;20403;-66
2021/07/31 02:14:32;;;;;;;11.80;5.27;;;15.20;94.00;;;;;;5114773;28;20043;-66
2021/07/31 02:16:58;;;;;;;12.07;5.40;;;15.20;94.10;;;;;;5115880;28;20055;-66
2021/07/31 02:19:23;;;;;;;15.90;6.07;;;15.20;94.20;;;;;;5115375;28;20047;-65
2021/07/31 02:21:49;;;;;;;11.67;5.47;;;15.20;94.30;;;;;;5114764;28;20527;-66
2021/07/31 02:24:15;;;;;;;13.50;6.43;;;15.20;94.30;;;;;;5114822;28;20565;-65
2021/07/31 02:26:41;;;;;;;15.63;6.60;;;15.20;94.30;;;;;;5115344;28;20055;-65
2021/07/31 02:29:06;;;;;;;13.50;6.60;;;15.20;94.40;;;;;;5114384;28;20407;-66
2021/07/31 02:31:32;;;;;;;11.03;6.10;;;15.20;94.40;;;;;;5115262;28;20044;-65
2021/07/31 02:33:57;;;;;;;12.20;7.30;;;15.20;94.50;;;;;;5115205;28;20048;-66
2021/07/31 02:36:23;;;;;;;13.87;6.57;;;15.20;94.50;;;;;;5114296;28;20438;-66
2021/07/31 02:38:49;;;;;;;12.37;6.70;;;15.20;94.60;;;;;;5115001;28;20510;-66
2021/07/31 02:41:16;;;;;;;11.90;6.47;;;15.20;94.70;;;;;;5114794;28;20047;-66
2021/07/31 02:43:42;;;;;;;13.50;7.37;;;15.20;94.70;;;;;;5114390;28;20081;-65
2021/07/31 02:46:13;;;;;;;12.25;6.43;;;15.20;94.70;;;;;;5114742;28;20048;-65
2021/07/31 02:48:39;;;;;;;12.33;6.97;;;15.20;94.70;;;;;;5115163;28;20055;-66
2021/07/31 02:51:13;;;;;;;12.53;7.03;;;15.20;94.80;;;;;;5114226;28;20492;-65
2021/07/31 02:53:39;;;;;;;10.93;7.23;;;15.20;94.70;;;;;;5115023;28;20100;-66
2021/07/31 02:56:06;;;;;;;11.67;6.40;;;15.20;94.80;;;;;;5114174;28;20408;-66
2021/07/31 02:58:31;;;;;;;12.20;7.10;;;15.20;94.80;;;;;;5114793;28;20055;-65
2021/07/31 03:01:08;;;;;;;15.77;7.57;;;15.20;94.90;;;;;;5114674;28;20055;-66
2021/07/31 03:03:34;;;;;;;14.30;7.67;;;15.20;95.00;;;;;;5114016;28;20062;-65
2021/07/31 03:06:00;;;;;;;13.97;6.47;;;15.20;94.90;;;;;;5114477;28;20043;-65
2021/07/31 03:08:29;;;;;;;13.10;6.93;;;15.20;95.00;;;;;;5114769;28;20051;-65
2021/07/31 03:10:57;;;;;;;15.20;7.67;;;15.20;95.00;;;;;;5113968;28;20133;-65
2021/07/31 03:13:23;;;;;;;13.83;7.60;;;15.20;95.00;;;;;;5114256;28;20086;-65
2021/07/31 03:15:49;;;;;;;12.03;7.73;;;15.20;95.00;;;;;;5114710;28;20043;-66
2021/07/31 03:18:15;;;;;;;12.63;7.40;;;15.20;95.00;;;;;;5113529;28;20400;-66
2021/07/31 03:20:47;;;;;;;13.73;7.43;;;15.20;95.00;;;;;;5114380;28;20051;-65
2021/07/31 03:23:14;;;;;;;14.07;7.30;;;15.20;95.00;;;;;;5113783;28;20048;-66
2021/07/31 03:25:40;;;;;;;15.53;7.80;;;15.30;95.00;;;;;;5113008;28;20051;-66
2021/07/31 03:28:06;;;;;;;16.23;8.77;;;15.30;95.00;;;;;;5113796;28;20054;-65
2021/07/31 03:30:39;;;;;;;14.57;8.77;;;15.30;95.10;;;;;;5114496;28;20082;-66
2021/07/31 03:33:05;;;;;;;12.30;8.77;;;15.30;95.20;;;;;;5113199;28;20105;-65
2021/07/31 03:35:34;;;;;;;16.20;8.83;;;15.30;95.30;;;;;;5114160;28;20151;-66
2021/07/31 03:37:59;;;;;;;12.37;8.93;;;15.30;95.40;;;;;;5113676;28;20099;-67
2021/07/31 03:40:26;;;;;;;13.83;9.10;;;15.30;95.40;;;;;;5113037;28;20044;-66
2021/07/31 03:42:51;;;;;;;16.70;9.97;;;15.20;95.60;;;;;;5113977;28;20138;-65
2021/07/31 03:45:17;;;;;;;16.97;9.67;;;15.20;95.60;;;;;;5113442;28;20070;-66
2021/07/31 03:47:43;;;;;;;18.53;10.13;;;15.20;95.70;;;;;;5113391;28;20054;-65
2021/07/31 03:50:10;;;;;;;17.33;9.10;;;15.20;95.90;;;;;;5113528;28;20131;-65
2021/07/31 03:52:36;;;;;;;15.37;9.67;;;15.20;96.00;;;;;;5112902;27;20058;-65
2021/07/31 03:55:08;;;;;;;15.00;9.43;;;15.20;96.00;;;;;;5113436;28;20056;-65
2021/07/31 03:57:54;;;;;;;14.70;8.77;;;15.20;96.00;;;;;;5112574;28;20520;-66
2021/07/31 04:00:20;;;;;;;15.37;9.17;;;15.20;96.00;;;;;;5112669;28;20051;-66
2021/07/31 04:02:45;;;;;;;13.57;8.37;;;15.20;96.00;;;;;;5113321;28;20082;-67
2021/07/31 04:05:11;;;;;;;15.70;9.30;;;15.20;96.10;;;;;;5113127;28;20066;-66
2021/07/31 04:07:36;;;;;;;13.67;8.27;;;15.20;96.10;;;;;;5112819;28;20051;-66
2021/07/31 04:10:03;;;;;;;11.17;9.00;;;15.20;96.10;;;;;;5113293;28;20057;-65
2021/07/31 04:12:28;;;;;;;14.33;8.90;;;15.20;96.10;;;;;;5113439;28;20054;-65
2021/07/31 04:14:54;;;;;;;15.30;8.50;;;15.20;96.20;;;;;;5112552;28;20044;-65
2021/07/31 04:17:19;;;;;;;13.67;8.83;;;15.20;96.30;;;;;;5112808;28;20074;-65
2021/07/31 04:19:45;;;;;;;15.27;9.17;;;15.20;96.30;;;;;;5113177;28;20134;-65
2021/07/31 04:22:15;;;;;;;14.40;9.10;;;15.20;96.80;;;;;;5111972;28;20150;-63
2021/07/31 04:24:41;;;;;;;13.67;7.90;;;15.30;96.40;;;;;;5112985;28;20431;-63
2021/07/31 04:27:06;;;;;;;16.47;8.27;;;15.30;96.50;;;;;;5112820;28;20048;-63
2021/07/31 04:29:32;;;;;;;14.50;7.93;;;15.30;96.40;;;;;;5112240;28;20039;-66
2021/07/31 04:31:58;;;;;;;9.87;7.47;;;15.30;96.40;;;;;;5113156;28;20058;-67
2021/07/31 04:34:26;;;;;;;17.83;8.00;;;15.30;96.40;;;;;;5112889;28;20136;-66
2021/07/31 04:36:52;;;;;;;11.67;8.13;;;15.30;96.50;;;;;;5111511;28;20044;-67
2021/07/31 04:39:18;;;;;;;15.53;8.87;;;15.30;96.50;;;;;;5112737;28;20122;-64
2021/07/31 04:41:44;;;;;;;21.07;9.93;;;15.30;96.60;;;;;;5112124;28;20047;-64
2021/07/31 04:44:09;;;;;;;12.70;8.63;;;15.20;96.70;;;;;;5112443;28;20112;-63
2021/07/31 04:46:35;;;;;;;16.27;9.90;;;15.20;96.70;;;;;;5112768;28;20044;-64
2021/07/31 04:49:00;;;;;;;14.93;9.37;;;15.20;96.90;;;;;;5111602;28;20051;-64
2021/07/31 04:51:26;;;;;;;14.67;9.43;;;15.20;97.10;;;;;;5112437;28;20047;-64
2021/07/31 04:53:52;;;;;;;13.20;9.77;;;15.20;97.50;;;;;;5112443;28;20480;-63
2021/07/31 04:56:18;;;;;;;18.30;10.40;;;15.10;97.20;;;;;;5111470;28;20039;-64
2021/07/31 04:58:43;;;;;;;14.90;9.40;;;15.10;97.20;;;;;;5112549;28;20078;-65
2021/07/31 05:01:09;;;;;;;19.57;9.67;;;15.10;97.40;;;;;;5110678;28;20468;-64
2021/07/31 05:03:36;;;;;;;15.03;8.77;;;15.10;97.50;;;;;;5111848;28;20104;-67
2021/07/31 05:06:06;;;;;;;16.90;9.00;;;15.10;97.60;;;;;;5112416;28;20040;-64
2021/07/31 05:08:31;;;;;;;13.87;8.87;;;15.10;97.50;;;;;;5112550;28;20495;-64
2021/07/31 05:10:58;;;;;;;16.57;9.10;;;15.10;97.50;;;;;;5112356;28;20083;-64
2021/07/31 05:13:24;;;;;;;15.80;9.03;;;15.10;97.60;;;;;;5112456;28;20051;-64
2021/07/31 05:15:50;;;;;;;21.93;8.63;;;15.10;97.70;;;;;;5112010;28;20044;-65
2021/07/31 05:18:16;;;;;;;17.07;8.80;;;15.20;97.80;;;;;;5107289;28;20184;-64
2021/07/31 05:20:45;;;;;;;15.50;8.37;;;15.20;97.70;;;;;;5112837;28;20048;-64
2021/07/31 05:23:13;;;;;;;19.83;9.17;;;15.20;97.70;;;;;;5112148;28;20111;-66
2021/07/31 05:25:44;;;;;;;18.57;8.87;;;15.20;97.80;;;;;;5112119;28;20050;-65
2021/07/31 05:28:10;;;;;;;20.92;8.75;;;15.30;97.80;;;;;;5112252;28;20048;-65
2021/07/31 05:30:40;;;;;;;23.90;8.93;;;15.30;97.80;;;;;;5112383;28;20052;-64
2021/07/31 05:33:06;;;;;;;20.03;8.83;;;15.30;97.80;;;;;;5111580;28;20052;-65
2021/07/31 05:35:32;;;;;;;20.03;7.50;;;15.40;97.90;;;;;;5112544;28;20400;-65
2021/07/31 05:37:57;;;;;;;18.83;7.50;;;15.40;98.00;;;;;;5111811;28;20048;-66
2021/07/31 05:40:23;;;;;;;19.40;7.73;;;15.40;98.00;;;;;;5110292;28;20045;-65
2021/07/31 05:42:52;;;;;;;17.43;6.83;;;15.50;98.00;;;;;;5111930;28;20044;-65
2021/07/31 05:45:18;;;;;;;18.70;6.20;;;15.50;98.00;;;;;;5111364;28;20048;-65
2021/07/31 05:47:44;;;;;;;19.07;5.87;;;15.60;97.90;;;;;;5112928;28;20054;-65
2021/07/31 05:50:11;;;;;;;23.30;6.40;;;15.70;97.80;;;;;;5116111;28;20138;-65
2021/07/31 05:52:38;;;;;;;17.70;6.17;;;15.70;97.70;;;;;;5115245;28;20048;-65
2021/07/31 05:55:06;;;;;;;15.60;5.63;;;15.70;97.60;;;;;;5115888;28;20047;-65
2021/07/31 05:57:31;;;;;;;15.80;5.53;;;15.70;97.60;;;;;;5116177;28;20051;-67
2021/07/31 05:59:57;;;;;;;20.33;5.83;;;15.70;97.60;;;;;;5115099;28;20097;-66
2021/07/31 06:02:24;;;;;;;21.03;5.47;;;15.70;97.60;;;;;;5113818;28;20052;-65
2021/07/31 06:04:49;;;;;;;17.07;5.60;;;15.80;97.60;;;;;;5115012;28;20429;-65
2021/07/31 06:07:15;;;;;;;19.50;5.50;;;15.80;98.00;;;;;;5115001;28;20089;-65
2021/07/31 06:09:42;;;;;;;21.23;5.10;;;15.90;97.60;;;;;;5116026;28;20059;-65
2021/07/31 06:12:11;;;;;;;15.77;5.03;;;15.90;97.50;;;;;;5115527;28;20044;-65
2021/07/31 06:14:38;;;;;;;18.63;5.10;;;15.90;97.40;;;;;;5114796;28;20070;-65
2021/07/31 06:17:05;;;;;;;13.87;4.37;;;16.00;97.30;;;;;;5113794;28;20043;-66
2021/07/31 06:19:31;;;;;;;18.93;4.27;;;16.00;97.30;;;;;;5115582;28;20051;-65
2021/07/31 06:21:57;;;;;;;17.63;4.50;;;16.00;97.20;;;;;;5114289;28;20146;-65
2021/07/31 06:24:24;;;;;;;16.77;4.30;;;16.00;97.20;;;;;;5114493;27;20052;-65
2021/07/31 06:26:49;;;;;;;18.90;4.50;;;16.00;97.20;;;;;;5114979;28;20054;-65
2021/07/31 06:29:15;;;;;;;17.97;4.77;;;16.00;97.20;;;;;;5113845;28;20035;-65
2021/07/31 06:31:41;;;;;;;19.73;5.40;;;16.00;97.20;;;;;;5114826;28;20043;-65
2021/07/31 06:34:07;;;;;;;18.67;4.97;;;16.00;97.20;;;;;;5113975;28;20514;-66
2021/07/31 06:36:34;;;;;;;13.63;4.57;;;16.00;97.30;;;;;;5114918;28;20114;-65
2021/07/31 06:39:04;;;;;;;20.27;4.97;;;16.00;97.20;;;;;;5114908;28;20122;-66
2021/07/31 06:41:30;;;;;;;16.73;5.20;;;16.00;97.20;;;;;;5114171;28;20062;-65
2021/07/31 06:43:56;;;;;;;14.57;4.17;;;16.10;97.30;;;;;;5115162;28;20077;-66
2021/07/31 06:46:26;;;;;;;13.97;5.60;;;16.10;97.20;;;;;;5114632;27;20043;-66
2021/07/31 06:48:53;;;;;;;17.20;5.10;;;16.20;97.10;;;;;;5114131;27;20066;-67
2021/07/31 06:51:20;;;;;;;16.87;4.60;;;16.30;97.00;;;;;;5114553;27;20122;-65
2021/07/31 06:53:46;;;;;;;16.20;4.27;;;16.40;96.90;;;;;;5114600;28;20093;-66
2021/07/31 06:56:12;;;;;;;13.40;4.07;;;16.50;96.70;;;;;;5113470;28;20134;-65
2021/07/31 06:58:37;;;;;;;14.47;3.83;;;16.50;96.40;;;;;;5114825;28;20135;-65
2021/07/31 07:01:11;;;;;;;14.03;3.00;;;16.60;96.20;;;;;;5113377;28;20048;-66
2021/07/31 07:03:38;;;;;;;12.70;3.50;;;16.70;95.90;;;;;;5113939;28;20141;-65
2021/07/31 07:06:07;;;;;;;12.67;3.30;;;16.70;95.90;;;;;;5114234;28;20070;-66
2021/07/31 07:08:34;;;;;;;13.90;3.80;;;16.80;95.80;;;;;;5114063;28;20569;-66
2021/07/31 07:11:00;;;;;;;14.23;3.77;;;16.90;95.70;;;;;;5113624;28;20122;-65
2021/07/31 07:13:26;;;;;;;14.03;3.83;;;16.90;95.40;;;;;;5114477;28;20130;-65
2021/07/31 07:15:52;;;;;;;13.93;3.43;;;17.00;95.40;;;;;;5111725;28;20146;-65
2021/07/31 07:18:18;;;;;;;14.90;3.20;;;17.00;95.30;;;;;;5110327;28;20040;-65
2021/07/31 07:20:43;;;;;;;16.17;3.43;;;17.00;95.10;;;;;;5112186;28;20561;-66
2021/07/31 07:23:09;;;;;;;15.73;3.80;;;17.00;95.10;;;;;;5112532;28;20056;-65
2021/07/31 07:25:36;;;;;;;13.00;3.50;;;16.90;95.00;;;;;;5112962;28;20098;-65
2021/07/31 07:28:02;;;;;;;21.63;4.17;;;16.90;95.20;;;;;;5113866;28;20389;-65
2021/07/31 07:30:28;;;;;;;16.97;3.93;;;16.80;95.40;;;;;;5113488;28;20055;-66
2021/07/31 07:32:54;;;;;;;16.30;4.53;;;16.80;95.40;;;;;;5114079;28;20491;-66
2021/07/31 07:35:21;;;;;;;16.30;4.43;;;16.70;95.60;;;;;;5113866;28;20047;-67
2021/07/31 07:37:46;;;;;;;15.87;4.07;;;16.60;95.70;;;;;;5112566;28;20134;-65
2021/07/31 07:40:12;;;;;;;15.77;4.33;;;16.60;95.80;;;;;;5113417;28;20436;-66
2021/07/31 07:42:39;;;;;;;19.50;5.10;;;16.50;96.00;;;;;;5113816;28;20063;-65
2021/07/31 07:45:07;;;;;;;16.73;4.30;;;16.50;96.30;;;;;;5112775;28;20454;-66
2021/07/31 07:47:33;;;;;;;14.83;4.10;;;16.40;96.30;;;;;;5111876;28;20046;-65
2021/07/31 07:49:59;;;;;;;11.77;3.77;;;16.30;96.40;;;;;;5112377;28;20417;-65
2021/07/31 07:52:25;;;;;;;14.90;4.10;;;16.20;96.50;;;;;;5111732;28;20534;-65
2021/07/31 07:54:51;;;;;;;18.53;4.80;;;16.10;96.70;;;;;;5112692;28;20035;-66
2021/07/31 07:57:17;;;;;;;14.77;4.80;;;16.10;96.90;;;;;;5112358;28;20044;-66
2021/07/31 07:59:43;;;;;;;21.63;5.47;;;16.20;97.10;;;;;;5112049;28;20040;-65
2021/07/31 08:02:08;;;;;;;22.53;5.00;;;16.20;97.30;;;;;;5112040;28;20115;-64
2021/07/31 08:04:34;;;;;;;14.47;4.83;;;16.30;97.30;;;;;;5112554;28;20044;-65
2021/07/31 08:07:00;;;;;;;17.00;4.67;;;16.30;97.40;;;;;;5111354;28;20082;-65
2021/07/31 08:09:26;;;;;;;17.30;5.67;;;16.40;97.50;;;;;;5112834;28;20092;-66
2021/07/31 08:11:52;;;;;;;12.60;4.43;;;16.40;97.50;;;;;;5112460;28;20047;-65
2021/07/31 08:14:17;;;;;;;18.27;5.30;;;16.50;97.60;;;;;;5111379;28;20051;-65
2021/07/31 08:16:43;;;;;;;14.87;4.50;;;16.60;97.70;;;;;;5112589;28;20047;-66
2021/07/31 08:19:10;;;;;;;16.60;4.47;;;16.80;97.60;;;;;;5111936;28;20122;-66
2021/07/31 08:21:37;;;;;;;11.17;3.53;;;17.00;97.50;;;;;;5111267;28;20044;-66
2021/07/31 08:24:03;;;;;;;11.03;3.63;;;17.10;97.30;;;;;;5111357;28;20047;-64
2021/07/31 08:26:28;;;;;;;15.47;3.67;;;17.20;96.80;;;;;;5112253;28;20146;-65
2021/07/31 08:28:57;;;;;;;12.60;3.87;;;17.20;96.70;;;;;;5111357;28;20142;-66
2021/07/31 08:31:22;;;;;;;10.80;3.63;;;17.20;96.60;;;;;;5111914;28;20043;-65
2021/07/31 08:33:48;;;;;;;14.83;4.17;;;17.30;96.50;;;;;;5111181;28;20052;-65
2021/07/31 08:36:14;;;;;;;14.63;3.70;;;17.30;96.40;;;;;;5111756;28;20096;-64
2021/07/31 08:38:39;;;;;;;11.33;4.07;;;17.20;96.00;;;;;;5111974;28;20047;-65
2021/07/31 08:41:06;;;;;;;14.03;4.20;;;17.10;96.10;;;;;;5111332;28;20440;-65
2021/07/31 08:43:32;;;;;;;10.77;3.90;;;17.00;96.20;;;;;;5111814;28;20130;-65
2021/07/31 08:46:03;;;;;;;11.33;3.63;;;17.00;96.30;;;;;;5112060;28;20043;-65
2021/07/31 08:48:29;;;;;;;12.60;5.13;;;16.90;96.30;;;;;;5110841;28;20109;-65
2021/07/31 08:50:59;;;;;;;13.83;3.70;;;16.90;96.40;;;;;;5111875;28;20047;-65
2021/07/31 08:53:29;;;;;;;14.50;4.63;;;16.90;96.40;;;;;;5111727;28;20456;-65
2021/07/31 08:55:56;;;;;;;9.77;3.40;;;16.80;96.40;;;;;;5108602;28;20139;-65
2021/07/31 08:58:24;;;;;;;11.03;4.37;;;16.70;96.40;;;;;;5111367;28;20352;-65
2021/07/31 09:00:51;;;;;;;14.53;4.07;;;16.70;96.70;;;;;;5111762;28;20040;-65
2021/07/31 09:03:17;;;;;;;11.20;3.43;;;16.90;97.00;;;;;;5110546;28;20521;-65
2021/07/31 09:05:43;;;;;;;10.90;4.17;;;17.00;96.90;;;;;;5111975;28;20036;-65
2021/07/31 09:08:09;;;;;;;11.27;3.70;;;17.10;96.90;;;;;;5111563;28;20077;-65
2021/07/31 09:10:37;;;;;;;13.03;3.80;;;17.30;96.70;;;;;;5111341;28;20435;-65
2021/07/31 09:13:05;;;;;;;11.33;3.60;;;17.40;96.30;;;;;;5111771;28;20074;-65
2021/07/31 09:15:36;;;;;;;10.80;3.20;;;17.40;96.30;;;;;;5112314;28;20055;-65
2021/07/31 09:18:30;;;;;;;14.15;4.47;;;17.60;96.20;;;;;;5110786;28;20119;-65
2021/07/31 09:21:02;;;;;;;8.77;2.97;;;17.60;95.80;;;;;;5112361;28;20044;-65
2021/07/31 09:23:44;;;;;;;12.30;3.07;;;17.60;95.60;;;;;;5113222;28;20055;-66
2021/07/31 09:26:23;;;;;;;13.93;2.90;;;17.60;95.60;;;;;;5115970;28;20078;-64
2021/07/31 09:29:24;;;;;;;11.40;2.90;;;17.60;95.60;;;;;;5114730;28;20123;-66
2021/07/31 09:31:54;;;;;;;11.17;2.60;;;17.60;95.50;;;;;;5103493;28;20051;-66
2021/07/31 09:34:27;;;;;;;8.55;2.60;;;17.60;95.60;;;;;;5115110;28;20051;-65
2021/07/31 09:37:27;;;;;;;8.70;2.70;;;17.60;95.40;;;;;;5114938;28;20048;-65
2021/07/31 09:39:59;;;;;;;9.63;2.67;;;17.60;95.20;;;;;;5115753;28;20135;-65
2021/07/31 09:42:29;;;;;;;;;;;17.60;95.10;;;;;;5116309;28;20047;-65
2021/07/31 09:44:57;;;;;;;10.93;2.47;;;17.50;94.30;;;;;;5115247;28;19932;-65
2021/07/31 09:47:23;;;;;;;10.70;2.80;;;17.50;94.90;;;;;;5115818;28;20051;-66
2021/07/31 09:49:50;;;;;;;7.03;2.53;;;17.40;95.00;;;;;;5116077;28;20105;-65
2021/07/31 09:52:18;;;;;;;9.47;3.10;;;17.30;95.10;;;;;;5115097;28;20052;-66
2021/07/31 09:54:44;;;;;;;13.10;3.17;;;17.20;95.30;;;;;;5115912;28;20044;-66
2021/07/31 09:57:12;;;;;;;8.77;2.73;;;17.20;95.50;;;;;;5114858;28;20051;-66
2021/07/31 09:59:51;;;;;;;8.30;2.87;;;17.10;95.60;;;;;;5114977;28;20122;-65
2021/07/31 10:02:19;;;;;;;10.00;2.80;;;17.20;95.80;;;;;;5115390;28;20047;-65
2021/07/31 10:04:46;;;;;;;8.47;3.53;;;17.30;95.90;;;;;;5115412;28;20044;-64
2021/07/31 10:07:13;;;;;;;7.90;2.40;;;17.50;95.60;;;;;;5114586;28;20131;-64
2021/07/31 10:09:45;;;;;;;9.10;2.73;;;17.60;95.40;;;;;;5115563;28;20055;-65
2021/07/31 10:12:14;;;;;;;9.67;2.73;;;17.60;95.00;;;;;;5114349;28;20540;-64
2021/07/31 10:14:40;;;;;;;9.67;2.70;;;17.70;95.00;;;;;;5115454;28;20051;-65
2021/07/31 10:17:07;;;;;;;7.07;2.90;;;17.70;95.10;;;;;;5115224;28;20043;-65
2021/07/31 10:19:45;;;;;;;8.57;2.30;;;17.70;95.00;;;;;;5114888;28;20074;-65
2021/07/31 10:22:13;;;;;;;8.83;3.00;;;17.70;95.00;;;;;;5114945;28;20074;-66
2021/07/31 10:24:54;;;;;;;9.43;3.00;;;17.70;95.00;;;;;;5114820;28;20060;-65
2021/07/31 10:27:22;;;;;;;10.27;3.28;;;17.60;94.80;;;;;;5114285;28;20048;-66
2021/07/31 10:29:53;;;;;;;9.23;3.43;;;17.60;95.00;;;;;;5115324;28;20074;-65
2021/07/31 10:32:21;;;;;;;11.35;3.70;;;17.60;95.10;;;;;;5114809;28;20192;-65
2021/07/31 10:34:58;;;;;;;10.83;3.40;;;17.50;95.20;;;;;;5114348;28;20044;-65
2021/07/31 10:37:34;;;;;;;11.17;3.30;;;17.50;95.30;;;;;;5115256;28;20058;-65
2021/07/31 10:40:06;;;;;;;13.57;3.77;;;17.50;95.30;;;;;;5114693;28;20047;-65
2021/07/31 10:42:47;;;;;;;12.17;3.33;;;17.50;95.40;;;;;;5114287;28;20063;-65
2021/07/31 10:45:15;;;;;;;12.90;3.72;;;17.50;95.40;;;;;;5114260;28;20055;-65
2021/07/31 10:47:42;;;;;;;12.97;3.67;;;17.50;95.60;;;;;;5114078;27;20484;-65
2021/07/31 10:50:23;;;;;;;11.77;3.93;;;17.50;95.70;;;;;;5114791;28;20496;-65
2021/07/31 10:53:02;;;;;;;12.35;3.75;;;17.60;95.80;;;;;;5114874;28;20509;-65
2021/07/31 10:55:36;;;;;;;13.23;4.30;;;17.60;95.90;;;;;;5114101;27;20047;-65
2021/07/31 10:58:09;;;;;;;9.77;3.53;;;17.80;96.00;;;;;;5114181;28;20126;-65
2021/07/31 11:00:46;;;;;;;12.43;3.87;;;17.90;96.00;;;;;;5114693;28;20123;-65
2021/07/31 11:03:31;;;;;;;12.80;3.03;;;18.20;96.40;;;;;;5113660;28;20453;-65
2021/07/31 11:05:58;;;;;;;15.70;3.10;;;18.50;95.90;;;;;;5114473;28;20131;-64
2021/07/31 11:08:54;;;;;;;8.93;3.80;;;18.90;95.30;;;;;;5113649;28;20617;-65
2021/07/31 11:11:19;;;;;;;12.33;3.10;;;19.30;95.10;;;;;;5114061;28;20051;-64
2021/07/31 11:13:45;;;;;;;10.80;2.63;;;19.50;94.20;;;;;;5114463;28;20051;-64
2021/07/31 11:16:14;;;;;;;12.03;2.87;;;19.70;94.10;;;;;;5113334;28;20054;-65
2021/07/31 11:18:44;;;;;;;9.47;2.73;;;19.80;93.40;;;;;;5114797;28;20044;-65
2021/07/31 11:21:23;;;;;;;13.10;3.63;;;19.90;92.80;;;;;;5114055;28;20050;-65
2021/07/31 11:23:51;;;;;;;8.83;2.77;;;19.90;92.20;;;;;;5113268;28;20453;-65
2021/07/31 11:26:43;;;;;;;14.10;3.60;;;19.90;91.60;;;;;;5113836;28;20396;-66
2021/07/31 11:29:12;;;;;;;10.13;3.03;;;19.80;90.70;;;;;;5113733;28;20050;-65
2021/07/31 11:31:39;;;;;;;7.93;3.63;;;19.70;91.20;;;;;;5113086;28;20113;-65
2021/07/31 11:34:08;;;;;;;8.70;3.93;;;19.50;91.20;;;;;;5113096;28;20096;-66
2021/07/31 11:36:35;;;;;;;12.03;3.80;;;19.40;91.00;;;;;;5113238;28;20411;-67
2021/07/31 11:39:02;;;;;;;10.27;4.07;;;19.20;91.20;;;;;;5113252;28;20040;-65
2021/07/31 11:41:29;;;;;;;9.10;4.20;;;19.00;91.90;;;;;;5113837;28;20051;-66
2021/07/31 11:43:59;;;;;;;13.77;5.90;;;18.80;91.50;;;;;;5112674;28;20047;-65
2021/07/31 11:46:28;;;;;;;15.40;5.17;;;18.60;91.90;;;;;;5113578;28;20048;-66
2021/07/31 11:48:56;;;;;;;10.57;4.93;;;18.50;92.50;;;;;;5113759;28;20055;-66
2021/07/31 11:51:23;;;;;;;9.93;5.20;;;18.40;92.90;;;;;;5112661;27;20052;-66
2021/07/31 11:53:52;;;;;;;11.20;5.37;;;18.30;93.20;;;;;;5113606;28;20480;-67
2021/07/31 11:56:23;;;;;;;11.10;4.97;;;18.40;93.70;;;;;;5113002;28;20047;-67
2021/07/31 11:58:52;;;;;;;11.35;5.13;;;18.50;93.60;;;;;;5112786;28;20048;-66
2021/07/31 12:01:18;;;;;;;9.50;4.20;;;18.50;93.50;;;;;;5112985;28;20047;-67
2021/07/31 12:03:52;;;;;;;9.43;3.87;;;18.60;93.40;;;;;;5113121;28;20047;-66
2021/07/31 12:06:38;;;;;;;5.47;3.50;;;18.90;93.40;;;;;;5112219;28;20047;-65
2021/07/31 12:09:26;;;;;;;7.23;3.47;;;19.20;92.60;;;;;;5113162;28;20135;-66
2021/07/31 12:11:54;;;;;;;6.87;2.80;;;19.30;92.20;;;;;;5111810;28;20046;-66
2021/07/31 12:14:30;;;;;;;7.37;2.87;;;19.40;91.50;;;;;;5112739;28;20488;-66
2021/07/31 12:17:23;;;;;;;5.23;2.63;;;19.40;91.20;;;;;;5112394;28;20055;-66
2021/07/31 12:19:55;;;;;;;7.23;3.53;;;19.60;90.40;;;;;;5109791;28;20149;-66
2021/07/31 12:22:23;;;;;;;8.60;3.00;;;19.80;90.50;;;;;;5112340;28;20109;-66
2021/07/31 12:25:08;;;;;;;6.07;3.00;;;20.00;90.00;;;;;;5112608;28;20546;-65
2021/07/31 12:28:02;;;;;;;6.53;2.40;;;20.30;89.10;;;;;;5112007;28;20056;-66
2021/07/31 12:30:38;;;;;;;7.10;2.80;;;20.30;87.70;;;;;;5113143;28;20112;-66
2021/07/31 12:33:06;;;;;;;5.20;2.60;;;20.30;86.50;;;;;;5111505;28;20296;-66
2021/07/31 12:35:36;;;;;;;7.93;3.00;;;20.10;86.90;;;;;;5112505;28;20487;-66
2021/07/31 12:38:23;;;;;;;8.47;3.47;;;20.00;87.30;;;;;;5112214;28;20160;-65
2021/07/31 12:40:57;;;;;;;7.93;2.80;;;20.10;87.40;;;;;;5110979;28;20059;-66
2021/07/31 12:43:25;;;;;;;7.30;3.10;;;20.30;87.50;;;;;;5112440;28;20051;-65
2021/07/31 12:45:52;;;;;;;7.80;2.63;;;20.40;86.90;;;;;;5112312;28;20150;-65